createdAt,value
2018-03-25T00:00:34.570Z,100612.59
2018-03-25T00:03:03.674Z,100616.06
2018-03-25T00:05:32.022Z,100617.59
2018-03-25T00:08:00.359Z,100617.84
2018-03-25T00:10:28.690Z,100619.77
2018-03-25T00:12:57.062Z,100621.26
2018-03-25T00:15:25.383Z,100621.91
2018-03-25T00:17:54.491Z,100624.43
2018-03-25T00:20:23.585Z,100622.25
2018-03-25T00:22:51.929Z,100622.76
2018-03-25T00:25:20.279Z,100623.64
2018-03-25T00:27:48.645Z,100624.30
2018-03-25T00:30:17.768Z,100624.87
2018-03-25T00:32:46.101Z,100630.08
2018-03-25T00:35:15.225Z,100631.90
2018-03-25T00:37:43.555Z,100634.14
2018-03-25T00:40:11.897Z,100633.25
2018-03-25T00:42:40.247Z,100638.02
2018-03-25T00:45:08.588Z,100638.67
2018-03-25T00:47:36.944Z,100638.02
2018-03-25T00:50:05.267Z,100638.25
2018-03-25T00:52:33.589Z,100647.56
2018-03-25T00:55:02.691Z,100649.01
2018-03-25T00:57:31.812Z,100647.86
2018-03-25T01:00:00.893Z,100650.17
2018-03-25T01:02:30.021Z,100648.64
2018-03-25T01:04:58.369Z,100644.84
2018-03-25T01:07:27.461Z,100652.31
2018-03-25T01:09:56.579Z,100652.36
2018-03-25T01:12:25.679Z,100647.70
2018-03-25T01:14:54.796Z,100642.64
2018-03-25T01:17:23.134Z,100644.71
2018-03-25T01:19:52.243Z,100652.23
2018-03-25T01:22:20.568Z,100651.50
2018-03-25T01:24:48.935Z,100654.14
2018-03-25T01:27:17.285Z,100652.08
2018-03-25T01:29:46.377Z,100657.56
2018-03-25T01:32:14.722Z,100654.17
2018-03-25T01:34:43.125Z,100655.34
2018-03-25T01:37:11.463Z,100661.70
2018-03-25T01:39:39.871Z,100662.55
2018-03-25T01:42:08.225Z,100663.40
2018-03-25T01:44:37.300Z,100659.30
2018-03-25T01:47:05.641Z,100662.90
2018-03-25T01:49:34.000Z,100662.34
2018-03-25T01:52:02.333Z,100662.84
2018-03-25T01:54:30.684Z,100662.09
2018-03-25T01:56:59.018Z,100660.30
2018-03-25T01:59:27.351Z,100667.37
2018-03-25T02:01:56.491Z,100662.34
2018-03-25T02:04:25.621Z,100663.58
2018-03-25T02:06:54.705Z,100664.18
2018-03-25T02:09:23.809Z,100670.20
2018-03-25T02:11:52.921Z,100666.55
2018-03-25T02:14:22.005Z,100668.48
2018-03-25T02:16:51.145Z,100667.63
2018-03-25T02:19:19.529Z,100672.50
2018-03-25T02:21:47.863Z,100668.20
2018-03-25T02:24:16.241Z,100668.62
2018-03-25T02:26:44.596Z,100672.67
2018-03-25T02:29:12.962Z,100673.09
2018-03-25T02:31:41.341Z,100676.48
2018-03-25T02:34:09.724Z,100676.97
2018-03-25T02:36:38.113Z,100678.13
2018-03-25T02:39:06.468Z,100679.77
2018-03-25T02:41:35.576Z,100679.44
2018-03-25T02:44:03.900Z,100676.12
2018-03-25T02:49:06.750Z,100681.75
2018-03-25T02:51:35.883Z,100684.23
2018-03-25T02:54:04.230Z,100685.77
2018-03-25T02:56:33.423Z,100683.45
2018-03-25T02:59:01.740Z,100686.43
2018-03-25T03:01:30.080Z,100689.02
2018-03-25T03:03:58.430Z,100689.23
2018-03-25T03:06:26.745Z,100686.43
2018-03-25T03:08:55.117Z,100692.22
2018-03-25T03:11:23.452Z,100687.20
2018-03-25T03:13:51.753Z,100686.29
2018-03-25T03:16:20.069Z,100691.16
2018-03-25T03:18:48.467Z,100688.29
2018-03-25T03:21:16.829Z,100694.48
2018-03-25T03:23:45.188Z,100698.94
2018-03-25T03:26:13.530Z,100697.35
2018-03-25T03:28:41.879Z,100703.40
2018-03-25T03:31:10.226Z,100707.70
2018-03-25T03:33:38.572Z,100703.88
2018-03-25T03:36:07.641Z,100703.48
2018-03-25T03:38:36.789Z,100700.91
2018-03-25T03:41:05.105Z,100709.48
2018-03-25T03:43:33.459Z,100709.57
2018-03-25T03:46:01.782Z,100713.20
2018-03-25T03:48:30.143Z,100718.33
2018-03-25T03:50:58.507Z,100714.60
2018-03-25T03:53:26.841Z,100717.66
2018-03-25T03:55:55.165Z,100721.39
2018-03-25T03:58:23.573Z,100725.10
2018-03-25T04:00:51.932Z,100727.27
2018-03-25T04:03:20.257Z,100725.63
2018-03-25T04:05:48.591Z,100732.62
2018-03-25T04:08:17.710Z,100730.66
2018-03-25T04:10:46.097Z,100732.97
2018-03-25T04:13:14.477Z,100734.20
2018-03-25T04:15:42.849Z,100735.03
2018-03-25T04:18:11.261Z,100734.61
2018-03-25T04:20:39.591Z,100728.16
2018-03-25T04:23:07.913Z,100729.55
2018-03-25T04:25:36.261Z,100723.84
2018-03-25T04:28:04.727Z,100731.06
2018-03-25T04:30:33.058Z,100734.81
2018-03-25T04:33:01.393Z,100734.55
2018-03-25T04:35:29.738Z,100738.24
2018-03-25T04:37:58.081Z,100733.95
2018-03-25T04:40:27.200Z,100734.45
2018-03-25T04:42:55.543Z,100734.45
2018-03-25T04:45:24.669Z,100743.13
2018-03-25T04:47:53.059Z,100739.48
2018-03-25T04:50:21.444Z,100739.55
2018-03-25T04:52:51.069Z,100748.38
2018-03-25T04:55:19.411Z,100747.14
2018-03-25T04:57:47.737Z,100750.68
2018-03-25T05:00:16.043Z,100751.67
2018-03-25T05:02:44.382Z,100748.15
2018-03-25T05:05:13.478Z,100748.70
2018-03-25T05:07:41.856Z,100756.33
2018-03-25T05:10:10.951Z,100762.77
2018-03-25T05:12:40.049Z,100767.98
2018-03-25T05:15:09.157Z,100768.80
2018-03-25T05:17:38.263Z,100769.78
2018-03-25T05:20:07.373Z,100773.90
2018-03-25T05:22:35.698Z,100772.91
2018-03-25T05:25:04.801Z,100773.02
2018-03-25T05:27:33.127Z,100778.97
2018-03-25T05:30:02.239Z,100782.94
2018-03-25T05:32:30.573Z,100777.77
2018-03-25T05:34:58.891Z,100780.81
2018-03-25T05:37:27.990Z,100780.66
2018-03-25T05:39:57.084Z,100785.23
2018-03-25T05:42:26.189Z,100788.05
2018-03-25T05:44:55.304Z,100798.67
2018-03-25T05:47:23.700Z,100794.98
2018-03-25T05:49:52.037Z,100801.10
2018-03-25T05:52:20.466Z,100801.31
2018-03-25T05:54:48.859Z,100804.57
2018-03-25T05:57:17.239Z,100804.60
2018-03-25T05:59:45.558Z,100812.95
2018-03-25T06:02:13.869Z,100815.03
2018-03-25T06:04:42.967Z,100818.72
2018-03-25T06:07:12.109Z,100817.67
2018-03-25T06:09:40.431Z,100816.57
2018-03-25T06:12:08.759Z,100822.38
2018-03-25T06:14:37.101Z,100822.95
2018-03-25T06:17:05.434Z,100826.13
2018-03-25T06:19:33.775Z,100830.12
2018-03-25T06:22:02.881Z,100829.71
2018-03-25T06:24:31.976Z,100835.09
2018-03-25T06:27:01.069Z,100832.19
2018-03-25T06:29:29.459Z,100841.13
2018-03-25T06:31:57.805Z,100842.46
2018-03-25T06:34:26.138Z,100851.19
2018-03-25T06:36:55.357Z,100854.71
2018-03-25T06:39:23.664Z,100848.74
2018-03-25T06:41:51.994Z,100850.14
2018-03-25T06:44:21.116Z,100854.00
2018-03-25T06:46:49.441Z,100864.22
2018-03-25T06:49:17.775Z,100863.81
2018-03-25T06:51:46.078Z,100872.55
2018-03-25T06:54:14.514Z,100870.73
2018-03-25T06:56:42.805Z,100874.09
2018-03-25T06:59:12.023Z,100875.51
2018-03-25T07:01:40.341Z,100891.48
2018-03-25T07:04:08.667Z,100897.06
2018-03-25T07:06:36.988Z,100899.78
2018-03-25T07:09:05.314Z,100893.64
2018-03-25T07:11:33.655Z,100902.59
2018-03-25T07:14:01.966Z,100897.34
2018-03-25T07:16:30.293Z,100905.06
2018-03-25T07:18:59.409Z,100903.98
2018-03-25T07:21:27.739Z,100909.34
2018-03-25T07:23:56.094Z,100911.50
2018-03-25T07:26:24.447Z,100916.31
2018-03-25T07:28:52.795Z,100914.32
2018-03-25T07:31:21.097Z,100918.86
2018-03-25T07:33:50.171Z,100923.98
2018-03-25T07:36:18.488Z,100926.20
2018-03-25T07:38:47.594Z,100923.83
2018-03-25T07:41:15.952Z,100931.11
2018-03-25T07:43:44.534Z,100929.63
2018-03-25T07:46:12.846Z,100929.75
2018-03-25T07:48:41.929Z,100935.95
2018-03-25T07:51:10.298Z,100938.45
2018-03-25T07:53:38.666Z,100935.17
2018-03-25T07:56:06.988Z,100938.06
2018-03-25T07:58:36.096Z,100942.70
2018-03-25T08:01:04.430Z,100943.48
2018-03-25T08:03:32.745Z,100946.36
2018-03-25T08:06:01.824Z,100945.95
2018-03-25T08:08:30.147Z,100959.21
2018-03-25T08:10:58.464Z,100953.17
2018-03-25T08:13:27.058Z,100953.48
2018-03-25T08:15:55.355Z,100960.09
2018-03-25T08:18:23.674Z,100959.59
2018-03-25T08:20:52.002Z,100969.89
2018-03-25T08:23:20.366Z,100967.80
2018-03-25T08:25:48.688Z,100969.75
2018-03-25T08:28:17.008Z,100967.52
2018-03-25T08:30:45.348Z,100969.06
2018-03-25T08:33:13.686Z,100976.90
2018-03-25T08:35:42.046Z,100975.22
2018-03-25T08:38:11.125Z,100973.92
2018-03-25T08:40:40.216Z,100976.89
2018-03-25T08:43:08.528Z,100981.06
2018-03-25T08:45:37.614Z,100985.75
2018-03-25T08:48:05.950Z,100983.19
2018-03-25T08:50:34.270Z,100983.55
2018-03-25T08:53:02.591Z,100985.28
2018-03-25T08:55:30.922Z,100981.61
2018-03-25T08:57:59.237Z,100992.02
2018-03-25T09:00:28.328Z,100992.64
2018-03-25T09:02:57.404Z,100998.25
2018-03-25T09:05:25.708Z,100997.00
2018-03-25T09:07:54.794Z,100987.91
2018-03-25T09:10:23.860Z,100992.93
2018-03-25T09:12:52.178Z,101001.26
2018-03-25T09:15:20.506Z,101003.84
2018-03-25T09:17:48.812Z,101011.25
2018-03-25T09:20:17.134Z,101002.67
2018-03-25T09:22:45.466Z,101006.02
2018-03-25T09:25:14.478Z,101005.09
2018-03-25T09:27:42.816Z,101006.54
2018-03-25T09:30:11.152Z,101011.70
2018-03-25T09:32:39.510Z,101006.95
2018-03-25T09:35:07.842Z,101006.69
2018-03-25T09:37:36.230Z,101011.13
2018-03-25T09:40:05.408Z,101006.12
2018-03-25T09:42:33.738Z,101007.02
2018-03-25T09:45:02.172Z,101011.51
2018-03-25T09:47:30.506Z,101016.39
2018-03-25T09:49:58.852Z,101013.37
2018-03-25T09:52:27.170Z,101022.20
2018-03-25T09:54:55.481Z,101020.27
2018-03-25T09:57:23.796Z,101025.82
2018-03-25T09:59:52.124Z,101032.47
2018-03-25T10:02:25.927Z,101033.34
2018-03-25T10:04:54.291Z,101034.14
2018-03-25T10:07:24.366Z,101037.48
2018-03-25T10:09:52.695Z,101030.09
2018-03-25T10:12:21.818Z,101032.89
2018-03-25T10:14:50.185Z,101035.91
2018-03-25T10:17:18.668Z,101037.70
2018-03-25T10:19:47.086Z,101037.73
2018-03-25T10:22:15.479Z,101031.39
2018-03-25T10:24:43.851Z,101041.69
2018-03-25T10:27:13.026Z,101044.16
2018-03-25T10:29:41.354Z,101054.37
2018-03-25T10:32:09.744Z,101048.84
2018-03-25T10:34:38.127Z,101049.42
2018-03-25T10:37:06.577Z,101049.24
2018-03-25T10:39:34.928Z,101046.84
2018-03-25T10:42:04.032Z,101046.80
2018-03-25T10:44:33.113Z,101051.03
2018-03-25T10:47:01.449Z,101051.96
2018-03-25T10:49:29.821Z,101053.23
2018-03-25T10:51:58.127Z,101055.00
2018-03-25T10:54:26.457Z,101055.10
2018-03-25T10:56:55.575Z,101055.92
2018-03-25T10:59:23.922Z,101056.67
2018-03-25T11:01:53.051Z,101058.38
2018-03-25T11:04:22.150Z,101060.70
2018-03-25T11:06:50.478Z,101060.75
2018-03-25T11:09:18.833Z,101071.23
2018-03-25T11:11:47.181Z,101073.44
2018-03-25T11:14:15.493Z,101070.70
2018-03-25T11:16:43.900Z,101074.25
2018-03-25T11:19:12.221Z,101071.30
2018-03-25T11:21:40.535Z,101074.58
2018-03-25T11:24:08.884Z,101073.48
2018-03-25T11:26:37.219Z,101080.16
2018-03-25T11:29:05.527Z,101084.27
2018-03-25T11:31:33.851Z,101076.05
2018-03-25T11:34:02.265Z,101080.83
2018-03-25T11:36:30.595Z,101085.20
2018-03-25T11:38:58.931Z,101083.25
2018-03-25T11:41:27.237Z,101090.45
2018-03-25T11:43:55.596Z,101095.16
2018-03-25T11:46:23.939Z,101087.25
2018-03-25T11:48:53.045Z,101098.03
2018-03-25T11:51:22.865Z,101094.84
2018-03-25T11:53:51.971Z,101101.28
2018-03-25T11:56:20.311Z,101102.64
2018-03-25T11:58:48.620Z,101108.50
2018-03-25T12:01:16.940Z,101107.16
2018-03-25T12:03:45.255Z,101111.63
2018-03-25T12:06:13.602Z,101107.13
2018-03-25T12:08:41.975Z,101113.64
2018-03-25T12:11:10.392Z,101119.77
2018-03-25T12:13:38.646Z,101112.86
2018-03-25T12:16:07.007Z,101106.98
2018-03-25T12:18:36.094Z,101110.26
2018-03-25T12:21:05.206Z,101109.41
2018-03-25T12:23:33.528Z,101111.83
2018-03-25T12:26:01.873Z,101110.34
2018-03-25T12:28:30.957Z,101116.23
2018-03-25T12:30:59.275Z,101117.72
2018-03-25T12:33:27.579Z,101121.51
2018-03-25T12:35:55.885Z,101126.45
2018-03-25T12:38:24.210Z,101128.14
2018-03-25T12:40:53.201Z,101127.74
2018-03-25T12:43:22.293Z,101123.45
2018-03-25T12:45:51.395Z,101121.98
2018-03-25T12:48:20.481Z,101127.35
2018-03-25T12:50:48.807Z,101131.69
2018-03-25T12:53:17.214Z,101127.97
2018-03-25T12:55:45.527Z,101115.98
2018-03-25T12:58:13.857Z,101123.05
2018-03-25T13:00:42.169Z,101120.73
2018-03-25T13:03:10.494Z,101114.99
2018-03-25T13:05:39.558Z,101114.99
2018-03-25T13:08:07.885Z,101114.87
2018-03-25T13:10:37.083Z,101118.85
2018-03-25T13:13:05.421Z,101125.44
2018-03-25T13:15:34.509Z,101119.30
2018-03-25T13:18:02.833Z,101122.73
2018-03-25T13:20:31.928Z,101123.95
2018-03-25T13:23:01.033Z,101124.48
2018-03-25T13:25:30.141Z,101118.98
2018-03-25T13:27:59.238Z,101125.66
2018-03-25T13:30:28.339Z,101120.20
2018-03-25T13:32:57.469Z,101124.57
2018-03-25T13:35:25.852Z,101127.45
2018-03-25T13:37:54.179Z,101118.39
2018-03-25T13:40:22.489Z,101122.16
2018-03-25T13:42:51.571Z,101126.27
2018-03-25T13:45:20.680Z,101124.56
2018-03-25T13:47:49.775Z,101123.28
2018-03-25T13:50:18.859Z,101120.95
2018-03-25T13:52:47.190Z,101122.05
2018-03-25T13:55:15.519Z,101117.45
2018-03-25T13:57:43.845Z,101122.80
2018-03-25T14:00:12.240Z,101114.75
2018-03-25T14:02:40.565Z,101114.87
2018-03-25T14:05:08.883Z,101115.17
2018-03-25T14:07:37.974Z,101116.84
2018-03-25T14:10:07.049Z,101116.17
2018-03-25T14:12:35.363Z,101116.76
2018-03-25T14:15:04.463Z,101115.19
2018-03-25T14:17:33.566Z,101115.33
2018-03-25T14:20:02.705Z,101119.09
2018-03-25T14:22:31.019Z,101119.21
2018-03-25T14:24:59.385Z,101121.80
2018-03-25T14:27:27.716Z,101116.37
2018-03-25T14:29:56.799Z,101113.34
2018-03-25T14:32:25.134Z,101113.49
2018-03-25T14:34:53.441Z,101114.54
2018-03-25T14:37:21.790Z,101119.45
2018-03-25T14:39:50.116Z,101129.64
2018-03-25T14:42:18.451Z,101129.69
2018-03-25T14:44:46.784Z,101125.84
2018-03-25T14:47:15.121Z,101130.06
2018-03-25T14:49:43.435Z,101129.15
2018-03-25T14:52:11.782Z,101134.57
2018-03-25T14:54:40.176Z,101133.77
2018-03-25T14:57:08.504Z,101137.65
2018-03-25T14:59:37.595Z,101143.25
2018-03-25T15:02:05.941Z,101143.19
2018-03-25T15:04:35.157Z,101145.79
2018-03-25T15:07:03.474Z,101150.59
2018-03-25T15:09:32.562Z,101148.02
2018-03-25T15:12:00.971Z,101148.66
2018-03-25T15:14:30.067Z,101148.08
2018-03-25T15:16:59.164Z,101144.87
2018-03-25T15:19:28.278Z,101152.70
2018-03-25T15:21:56.644Z,101164.25
2018-03-25T15:24:25.740Z,101158.08
2018-03-25T15:26:54.875Z,101161.29
2018-03-25T15:29:23.236Z,101154.97
2018-03-25T15:31:52.381Z,101160.87
2018-03-25T15:34:21.561Z,101158.33
2018-03-25T15:36:49.951Z,101166.09
2018-03-25T15:39:18.270Z,101167.28
2018-03-25T15:41:46.583Z,101171.09
2018-03-25T15:44:15.696Z,101169.34
2018-03-25T15:46:44.015Z,101173.38
2018-03-25T15:49:12.322Z,101171.93
2018-03-25T15:51:40.637Z,101173.72
2018-03-25T15:54:08.974Z,101175.84
2018-03-25T15:56:37.524Z,101177.05
2018-03-25T15:59:06.058Z,101183.02
2018-03-25T16:01:35.267Z,101182.78
2018-03-25T16:04:04.352Z,101187.73
2018-03-25T16:06:32.687Z,101190.78
2018-03-25T16:09:01.019Z,101188.80
2018-03-25T16:11:29.419Z,101199.47
2018-03-25T16:13:58.728Z,101200.74
2018-03-25T16:16:27.081Z,101200.28
2018-03-25T16:18:55.434Z,101202.90
2018-03-25T16:21:23.757Z,101201.52
2018-03-25T16:23:52.067Z,101199.80
2018-03-25T16:26:21.266Z,101204.60
2018-03-25T16:28:49.836Z,101204.92
2018-03-25T16:31:19.031Z,101208.69
2018-03-25T16:33:47.808Z,101208.87
2018-03-25T16:36:16.132Z,101209.00
2018-03-25T16:38:45.236Z,101217.34
2018-03-25T16:41:14.531Z,101217.45
2018-03-25T16:43:42.870Z,101218.93
2018-03-25T16:46:11.409Z,101223.56
2018-03-25T16:48:39.970Z,101220.98
2018-03-25T16:51:09.077Z,101218.36
2018-03-25T16:53:37.603Z,101224.82
2018-03-25T16:56:05.990Z,101227.59
2018-03-25T16:58:34.513Z,101231.77
2018-03-25T17:01:03.701Z,101229.33
2018-03-25T17:03:32.039Z,101239.31
2018-03-25T17:06:01.134Z,101246.80
2018-03-25T17:08:30.374Z,101251.76
2018-03-25T17:10:58.720Z,101257.42
2018-03-25T17:13:27.875Z,101258.92
2018-03-25T17:15:56.229Z,101253.18
2018-03-25T17:18:24.559Z,101259.40
2018-03-25T17:20:52.874Z,101262.77
2018-03-25T17:23:22.025Z,101262.09
2018-03-25T17:25:50.406Z,101267.70
2018-03-25T17:28:18.734Z,101273.46
2018-03-25T17:30:47.055Z,101274.41
2018-03-25T17:33:15.451Z,101276.55
2018-03-25T17:35:43.790Z,101282.21
2018-03-25T17:38:12.120Z,101291.22
2018-03-25T17:40:40.477Z,101292.27
2018-03-25T17:43:08.787Z,101295.45
2018-03-25T17:45:37.207Z,101300.12
2018-03-25T17:48:05.538Z,101293.23
2018-03-25T17:50:33.908Z,101297.11
2018-03-25T17:53:02.275Z,101301.50
2018-03-25T17:55:31.354Z,101309.84
2018-03-25T17:57:59.668Z,101303.64
2018-03-25T18:00:27.984Z,101312.08
2018-03-25T18:02:56.300Z,101312.92
2018-03-25T18:05:25.421Z,101315.27
2018-03-25T18:07:54.213Z,101315.84
2018-03-25T18:10:23.303Z,101322.80
2018-03-25T18:12:52.401Z,101320.58
2018-03-25T18:15:21.495Z,101326.53
2018-03-25T18:17:50.588Z,101336.06
2018-03-25T18:20:18.911Z,101342.42
2018-03-25T18:22:47.207Z,101339.86
2018-03-25T18:25:15.514Z,101347.69
2018-03-25T18:27:43.959Z,101351.84
2018-03-25T18:30:12.291Z,101350.55
2018-03-25T18:32:40.848Z,101354.69
2018-03-25T18:35:09.188Z,101361.88
2018-03-25T18:37:38.247Z,101363.77
2018-03-25T18:40:06.568Z,101372.80
2018-03-25T18:42:35.728Z,101370.50
2018-03-25T18:45:04.103Z,101377.11
2018-03-25T18:47:32.530Z,101378.87
2018-03-25T18:50:00.909Z,101379.77
2018-03-25T18:52:29.341Z,101388.97
2018-03-25T18:54:57.698Z,101390.23
2018-03-25T18:57:26.063Z,101394.25
2018-03-25T18:59:54.442Z,101393.27
2018-03-25T19:02:22.760Z,101398.08
2018-03-25T19:04:51.081Z,101401.94
2018-03-25T19:07:19.517Z,101400.06
2018-03-25T19:09:47.935Z,101408.78
2018-03-25T19:12:16.273Z,101404.88
2018-03-25T19:14:44.609Z,101412.27
2018-03-25T19:17:13.203Z,101411.42
2018-03-25T19:19:42.577Z,101417.02
2018-03-25T19:22:10.957Z,101422.73
2018-03-25T19:24:39.528Z,101422.98
2018-03-25T19:27:08.201Z,101425.90
2018-03-25T19:29:36.604Z,101429.40
2018-03-25T19:32:05.210Z,101425.15
2018-03-25T19:34:33.621Z,101421.57
2018-03-25T19:37:01.941Z,101430.47
2018-03-25T19:39:31.132Z,101432.52
2018-03-25T19:41:59.687Z,101430.45
2018-03-25T19:44:28.331Z,101432.59
2018-03-25T19:46:56.752Z,101433.16
2018-03-25T19:49:25.141Z,101431.08
2018-03-25T19:51:53.526Z,101428.36
2018-03-25T19:54:25.485Z,101436.23
2018-03-25T19:56:55.236Z,101437.80
2018-03-25T19:59:24.444Z,101442.92
2018-03-25T20:01:54.680Z,101446.88
2018-03-25T20:04:26.393Z,101450.13
2018-03-25T20:06:54.709Z,101447.34
2018-03-25T20:09:23.811Z,101446.28
2018-03-25T20:11:52.933Z,101454.22
2018-03-25T20:14:22.130Z,101450.48
2018-03-25T20:16:50.466Z,101449.31
2018-03-25T20:19:18.799Z,101448.72
2018-03-25T20:21:48.213Z,101446.53
2018-03-25T20:24:17.284Z,101451.91
2018-03-25T20:26:45.613Z,101455.81
2018-03-25T20:29:13.996Z,101456.88
2018-03-25T20:31:42.382Z,101463.92
2018-03-25T20:34:10.762Z,101467.28
2018-03-25T20:36:39.099Z,101468.70
2018-03-25T20:39:07.416Z,101481.50
2018-03-25T20:41:35.746Z,101482.36
2018-03-25T20:44:04.083Z,101481.44
2018-03-25T20:46:32.408Z,101487.27
2018-03-25T20:49:00.751Z,101483.63
2018-03-25T20:51:29.099Z,101486.02
2018-03-25T20:53:58.186Z,101486.17
2018-03-25T20:56:26.502Z,101481.94
2018-03-25T20:58:54.825Z,101481.26
2018-03-25T21:01:23.157Z,101485.17
2018-03-25T21:03:52.234Z,101483.40
2018-03-25T21:06:20.544Z,101492.16
2018-03-25T21:08:49.645Z,101498.61
2018-03-25T21:11:18.794Z,101498.54
2018-03-25T21:13:47.867Z,101494.24
2018-03-25T21:16:16.188Z,101488.23
2018-03-25T21:18:44.510Z,101494.34
2018-03-25T21:21:12.823Z,101490.63
2018-03-25T21:23:41.161Z,101494.76
2018-03-25T21:26:10.250Z,101494.90
2018-03-25T21:28:38.566Z,101493.60
2018-03-25T21:31:06.879Z,101495.33
2018-03-25T21:33:35.225Z,101495.84
2018-03-25T21:36:03.544Z,101503.13
2018-03-25T21:38:31.861Z,101504.45
2018-03-25T21:41:00.944Z,101506.34
2018-03-25T21:43:29.240Z,101506.02
2018-03-25T21:45:57.570Z,101513.03
2018-03-25T21:48:25.878Z,101505.52
2018-03-25T21:50:54.190Z,101503.84
2018-03-25T21:53:22.514Z,101509.14
2018-03-25T21:55:50.890Z,101507.20
2018-03-25T21:58:19.216Z,101516.62
2018-03-25T22:00:47.554Z,101513.21
2018-03-25T22:03:15.864Z,101517.09
2018-03-25T22:05:44.202Z,101518.18
2018-03-25T22:08:13.280Z,101519.88
2018-03-25T22:10:41.582Z,101521.27
2018-03-25T22:13:10.656Z,101519.45
2018-03-25T22:15:39.002Z,101516.75
2018-03-25T22:18:08.093Z,101512.24
2018-03-25T22:20:36.408Z,101513.97
2018-03-25T22:23:04.744Z,101518.71
2018-03-25T22:25:33.074Z,101519.89
2018-03-25T22:28:01.388Z,101519.05
2018-03-25T22:30:30.467Z,101521.55
2018-03-25T22:32:58.781Z,101518.55
2018-03-25T22:35:27.102Z,101518.13
2018-03-25T22:37:55.414Z,101521.61
2018-03-25T22:40:23.736Z,101523.66
2018-03-25T22:42:52.038Z,101518.96
2018-03-25T22:45:20.363Z,101516.62
2018-03-25T22:47:48.676Z,101514.23
2018-03-25T22:50:16.983Z,101514.11
2018-03-25T22:52:45.286Z,101515.02
2018-03-25T22:55:13.652Z,101522.46
2018-03-25T22:57:41.964Z,101513.49
2018-03-25T23:00:10.360Z,101514.96
2018-03-25T23:02:38.685Z,101517.95
2018-03-25T23:05:07.016Z,101516.62
2018-03-25T23:07:35.312Z,101520.18
2018-03-25T23:10:04.402Z,101512.88
2018-03-25T23:12:32.719Z,101516.62
2018-03-25T23:15:01.020Z,101518.02
2018-03-25T23:17:29.323Z,101512.88
2018-03-25T23:19:57.767Z,101511.55
2018-03-25T23:22:26.089Z,101510.38
2018-03-25T23:24:54.411Z,101510.97
2018-03-25T23:27:23.479Z,101507.42
2018-03-25T23:29:51.792Z,101513.91
2018-03-25T23:32:21.031Z,101518.72
2018-03-25T23:34:49.345Z,101519.84
2018-03-25T23:37:17.671Z,101524.84
2018-03-25T23:39:46.745Z,101521.58
2018-03-25T23:42:15.057Z,101512.04
2018-03-25T23:44:43.373Z,101520.67
2018-03-25T23:47:11.691Z,101516.97
2018-03-25T23:49:40.005Z,101522.95
2018-03-25T23:52:08.337Z,101521.36
2018-03-25T23:54:36.642Z,101522.88
2018-03-25T23:57:05.716Z,101520.06
2018-03-25T23:59:34.033Z,101517.69
